Time;durP1;ratioP1;P1;durP2;ratioP2;P2;SDS_P1;SDS_P2;PMS_P1;PMS_P2;Temp;Humidity;BMP_temperature;BMP_pressure;BME280_temperature;BME280_humidity;BME280_pressure;Samples;Min_cycle;Max_cycle;Signal;HPM_P1;HPM_P2
2022/01/03 00:01:48;;;;;;;9.97;6.57;;;2.50;99.90;;;;;;4973022;28;20219;-65
2022/01/03 00:04:16;;;;;;;10.40;6.37;;;2.60;99.90;;;;;;4972878;28;20211;-66
2022/01/03 00:06:44;;;;;;;9.10;6.17;;;2.60;99.90;;;;;;4972777;28;20251;-66
2022/01/03 00:09:11;;;;;;;10.73;6.30;;;2.60;99.90;;;;;;4987747;28;20204;-65
2022/01/03 00:11:39;;;;;;;11.10;6.73;;;2.60;99.90;;;;;;4992171;28;20271;-66
2022/01/03 00:14:06;;;;;;;8.60;5.63;;;2.60;99.90;;;;;;4992489;28;20634;-65
2022/01/03 00:16:34;;;;;;;9.27;6.50;;;2.60;99.90;;;;;;4992073;28;20246;-68
2022/01/03 00:19:01;;;;;;;9.70;6.17;;;2.60;99.90;;;;;;4992058;28;20215;-65
2022/01/03 00:21:34;;;;;;;9.53;5.70;;;2.60;99.90;;;;;;4992150;28;20302;-64
2022/01/03 00:24:07;;;;;;;9.63;6.27;;;2.60;99.90;;;;;;4992034;28;20188;-65
2022/01/03 00:26:36;;;;;;;8.90;6.10;;;2.60;99.90;;;;;;4992042;28;20290;-65
2022/01/03 00:29:09;;;;;;;9.03;5.73;;;2.60;99.90;;;;;;4992169;28;20210;-64
2022/01/03 00:31:39;;;;;;;10.40;6.30;;;2.60;99.90;;;;;;4991996;28;20192;-65
2022/01/03 00:34:08;;;;;;;9.47;6.40;;;2.60;99.90;;;;;;4991943;28;20199;-66
2022/01/03 00:36:35;;;;;;;10.47;6.73;;;2.60;99.90;;;;;;4991638;28;20311;-66
2022/01/03 00:39:03;;;;;;;11.23;6.90;;;2.60;99.90;;;;;;4991927;28;20517;-66
2022/01/03 00:41:30;;;;;;;11.43;7.07;;;2.70;99.90;;;;;;4991928;28;20214;-68
2022/01/03 00:43:57;;;;;;;10.13;6.60;;;2.70;99.90;;;;;;4992145;28;20239;-64
2022/01/03 00:46:23;;;;;;;12.13;6.77;;;2.70;99.90;;;;;;4991563;28;20210;-65
2022/01/03 00:48:54;;;;;;;10.87;7.10;;;2.60;99.90;;;;;;4990895;28;20200;-66
2022/01/03 00:51:21;;;;;;;10.33;6.87;;;2.70;99.90;;;;;;4990687;28;20199;-64
2022/01/03 00:53:48;;;;;;;14.67;6.87;;;2.70;99.90;;;;;;4986854;28;20199;-66
2022/01/03 00:56:19;;;;;;;11.33;7.27;;;2.70;99.90;;;;;;4986867;28;20204;-64
2022/01/03 00:58:54;;;;;;;12.13;7.20;;;2.70;99.90;;;;;;4990357;28;20719;-64
2022/01/03 01:01:24;;;;;;;11.57;7.73;;;2.70;99.90;;;;;;4992008;28;20207;-64
2022/01/03 01:03:54;;;;;;;10.97;7.27;;;2.70;99.90;;;;;;4993180;28;20199;-65
2022/01/03 01:06:22;;;;;;;12.33;7.63;;;2.80;99.90;;;;;;4991653;28;20242;-65
2022/01/03 01:08:55;;;;;;;11.57;7.13;;;2.80;99.90;;;;;;4990917;28;20208;-66
2022/01/03 01:11:26;;;;;;;10.57;7.20;;;2.80;99.90;;;;;;4991624;28;20254;-66
2022/01/03 01:13:53;;;;;;;11.87;7.70;;;2.80;99.90;;;;;;4991145;28;20199;-63
2022/01/03 01:16:20;;;;;;;10.70;7.43;;;2.80;99.90;;;;;;4991574;28;20210;-67
2022/01/03 01:18:47;;;;;;;13.57;8.00;;;2.80;99.90;;;;;;4991938;28;20548;-66
2022/01/03 01:21:16;;;;;;;11.17;7.43;;;2.80;99.90;;;;;;4991999;28;20212;-65
2022/01/03 01:23:43;;;;;;;11.70;8.10;;;2.80;99.90;;;;;;4991944;28;20206;-65
2022/01/03 01:28:55;;;;;;;11.40;7.67;;;2.80;99.90;;;;;;4994177;28;20187;-65
2022/01/03 01:31:24;;;;;;;11.47;7.27;;;2.90;99.90;;;;;;4975498;28;20690;-66
2022/01/03 01:33:54;;;;;;;11.23;7.47;;;2.90;99.90;;;;;;4975393;28;20215;-64
2022/01/03 01:36:26;;;;;;;11.03;7.23;;;3.00;99.90;;;;;;4975190;28;20564;-66
2022/01/03 01:38:55;;;;;;;12.77;7.83;;;3.00;99.90;;;;;;4996173;28;20196;-66
2022/01/03 01:41:25;;;;;;;12.03;7.67;;;3.00;99.90;;;;;;4994578;28;20206;-66
2022/01/03 01:43:55;;;;;;;11.83;7.90;;;3.10;99.90;;;;;;4994975;28;20588;-66
2022/01/03 01:46:24;;;;;;;12.27;7.50;;;3.10;99.90;;;;;;4994273;28;20215;-65
2022/01/03 01:48:53;;;;;;;14.50;8.70;;;3.00;99.90;;;;;;4994580;28;20210;-65
2022/01/03 01:51:23;;;;;;;13.03;8.47;;;3.10;99.90;;;;;;4994573;28;20640;-66
2022/01/03 01:53:52;;;;;;;12.70;8.03;;;3.10;99.90;;;;;;4994730;28;20199;-66
2022/01/03 01:56:20;;;;;;;13.53;8.73;;;3.10;99.90;;;;;;4986039;28;20208;-66
2022/01/03 01:59:10;;;;;;;12.80;8.60;;;3.20;99.90;;;;;;4974744;28;20236;-65
2022/01/03 02:01:44;;;;;;;12.40;7.70;;;3.20;99.90;;;;;;4984695;28;20196;-65
2022/01/03 02:04:31;;;;;;;11.00;7.70;;;3.20;99.90;;;;;;4994118;28;20199;-66
2022/01/03 02:07:33;;;;;;;12.37;7.20;;;3.20;99.90;;;;;;4994628;28;20191;-65
2022/01/03 02:10:06;;;;;;;12.63;7.73;;;3.30;99.90;;;;;;4994355;28;20203;-64
2022/01/03 02:12:37;;;;;;;12.73;7.93;;;3.30;99.90;;;;;;4994717;28;20202;-66
2022/01/03 02:15:09;;;;;;;13.77;7.83;;;3.30;99.90;;;;;;4994373;28;20210;-66
2022/01/03 02:17:36;;;;;;;12.73;8.40;;;3.40;99.90;;;;;;4994235;28;20218;-64
2022/01/03 02:20:08;;;;;;;13.83;8.03;;;3.40;99.90;;;;;;4994228;28;20225;-65
2022/01/03 02:22:35;;;;;;;11.47;7.83;;;3.40;99.90;;;;;;4994295;28;20196;-66
2022/01/03 02:25:01;;;;;;;14.37;7.97;;;3.50;99.90;;;;;;4993985;28;20226;-65
2022/01/03 02:27:28;;;;;;;17.03;9.23;;;3.50;99.90;;;;;;4993933;28;20206;-65
2022/01/03 02:29:55;;;;;;;12.93;8.43;;;3.50;99.90;;;;;;4993809;28;20208;-65
2022/01/03 02:32:22;;;;;;;14.80;8.70;;;3.50;99.90;;;;;;4993778;28;20204;-65
2022/01/03 02:34:49;;;;;;;14.23;8.47;;;3.50;99.90;;;;;;4994101;28;20208;-66
2022/01/03 02:37:17;;;;;;;13.90;8.60;;;3.50;99.90;;;;;;4993423;28;20234;-65
2022/01/03 02:39:44;;;;;;;12.53;8.27;;;3.60;99.90;;;;;;4993903;28;20214;-64
2022/01/03 02:42:11;;;;;;;12.90;7.73;;;3.60;99.90;;;;;;4993684;28;20211;-65
2022/01/03 02:44:38;;;;;;;13.50;8.40;;;3.60;99.90;;;;;;4993607;28;20207;-64
2022/01/03 02:47:04;;;;;;;12.50;8.30;;;3.70;99.90;;;;;;4993448;28;20203;-66
2022/01/03 02:49:31;;;;;;;17.50;8.77;;;3.70;99.90;;;;;;4992676;28;20215;-64
2022/01/03 02:51:58;;;;;;;15.87;8.80;;;3.70;99.90;;;;;;4989195;28;20207;-65
2022/01/03 02:54:26;;;;;;;14.60;8.27;;;3.70;99.90;;;;;;4992850;28;20310;-65
2022/01/03 02:56:53;;;;;;;17.73;8.93;;;3.70;99.90;;;;;;4993254;28;20242;-66
2022/01/03 02:59:20;;;;;;;12.57;8.40;;;3.70;99.90;;;;;;4992918;28;20250;-64
2022/01/03 03:01:48;;;;;;;13.40;8.03;;;3.80;99.90;;;;;;4993571;28;20207;-64
2022/01/03 03:04:16;;;;;;;14.27;8.33;;;3.80;99.90;;;;;;4993061;28;20207;-65
2022/01/03 03:06:42;;;;;;;14.77;8.80;;;3.90;99.90;;;;;;4993131;28;20208;-64
2022/01/03 03:09:09;;;;;;;14.07;8.27;;;3.90;99.90;;;;;;4993188;28;20203;-65
2022/01/03 03:11:38;;;;;;;13.20;8.67;;;3.80;99.90;;;;;;4993242;28;20214;-65
2022/01/03 03:14:05;;;;;;;12.57;8.43;;;3.80;99.90;;;;;;4993130;28;20221;-65
2022/01/03 03:16:32;;;;;;;12.23;8.70;;;3.90;99.90;;;;;;4992975;28;20207;-67
2022/01/03 03:18:59;;;;;;;13.30;8.40;;;3.90;99.90;;;;;;4991831;28;20219;-66
2022/01/03 03:21:29;;;;;;;13.60;8.67;;;4.00;99.90;;;;;;4991900;28;20211;-65
2022/01/03 03:23:57;;;;;;;13.63;8.77;;;3.90;99.90;;;;;;4992211;28;20242;-65
2022/01/03 03:26:24;;;;;;;16.87;9.43;;;4.00;99.90;;;;;;4991871;28;20299;-64
2022/01/03 03:28:52;;;;;;;15.60;8.37;;;4.00;99.90;;;;;;4991587;28;20203;-66
2022/01/03 03:31:19;;;;;;;14.27;9.00;;;4.00;99.90;;;;;;4991542;28;20215;-65
2022/01/03 03:33:46;;;;;;;14.70;9.03;;;4.00;99.90;;;;;;4991652;28;20242;-64
2022/01/03 03:36:13;;;;;;;15.10;8.60;;;4.10;99.90;;;;;;4991237;28;20203;-65
2022/01/03 03:38:39;;;;;;;16.77;9.03;;;4.10;99.90;;;;;;4991813;28;20230;-66
2022/01/03 03:41:06;;;;;;;14.00;8.83;;;4.10;99.90;;;;;;4991218;28;20207;-65
2022/01/03 03:43:33;;;;;;;14.63;8.63;;;4.20;99.90;;;;;;4991103;28;20214;-66
2022/01/03 03:46:01;;;;;;;15.53;8.97;;;4.20;99.90;;;;;;4991294;28;20207;-65
2022/01/03 03:48:28;;;;;;;14.87;8.70;;;4.20;99.90;;;;;;4991589;28;20214;-64
2022/01/03 03:50:55;;;;;;;16.00;9.53;;;4.20;99.90;;;;;;4992465;28;20680;-64
2022/01/03 03:53:22;;;;;;;14.77;9.03;;;4.20;99.90;;;;;;4992132;28;20196;-64
2022/01/03 03:55:49;;;;;;;16.53;10.03;;;4.20;99.90;;;;;;4992601;28;20659;-65
2022/01/03 03:58:16;;;;;;;16.03;9.33;;;4.10;99.90;;;;;;4992279;28;20227;-65
2022/01/03 04:00:43;;;;;;;16.23;9.43;;;4.20;99.90;;;;;;4992187;28;20239;-66
2022/01/03 04:03:11;;;;;;;15.80;9.40;;;4.20;99.90;;;;;;4991511;28;20207;-66
2022/01/03 04:05:38;;;;;;;14.47;9.43;;;4.10;99.90;;;;;;4992501;28;20568;-64
2022/01/03 04:08:05;;;;;;;15.23;9.37;;;4.10;99.90;;;;;;4992285;28;20719;-65
2022/01/03 04:10:32;;;;;;;15.43;9.33;;;4.10;99.90;;;;;;4992183;28;20204;-64
2022/01/03 04:12:59;;;;;;;15.23;9.50;;;4.10;99.90;;;;;;4991917;28;20222;-65
2022/01/03 04:15:26;;;;;;;17.83;9.53;;;4.20;99.90;;;;;;4992075;28;20207;-64
2022/01/03 04:17:53;;;;;;;15.90;9.33;;;4.10;99.90;;;;;;4991796;28;20707;-64
2022/01/03 04:20:21;;;;;;;14.03;8.70;;;4.20;99.90;;;;;;4992185;28;20203;-64
2022/01/03 04:22:48;;;;;;;15.83;9.80;;;4.10;99.90;;;;;;4992050;28;20207;-64
2022/01/03 04:25:15;;;;;;;15.77;9.20;;;4.10;99.90;;;;;;4992077;28;20359;-65
2022/01/03 04:27:42;;;;;;;13.80;8.93;;;4.10;99.90;;;;;;4992167;28;20229;-66
2022/01/03 04:30:10;;;;;;;16.70;9.90;;;4.20;99.90;;;;;;4992002;28;20567;-64
2022/01/03 04:32:37;;;;;;;13.97;9.20;;;4.10;99.90;;;;;;4992082;28;20215;-66
2022/01/03 04:35:05;;;;;;;16.93;9.43;;;4.10;99.90;;;;;;4991751;28;20682;-65
2022/01/03 04:37:33;;;;;;;16.13;9.10;;;4.20;99.90;;;;;;4991954;28;20648;-65
2022/01/03 04:40:00;;;;;;;15.30;9.33;;;4.20;99.90;;;;;;4992008;28;20207;-66
2022/01/03 04:42:26;;;;;;;17.33;10.20;;;4.20;99.90;;;;;;4992106;28;20298;-64
2022/01/03 04:44:53;;;;;;;15.87;9.40;;;4.20;99.90;;;;;;4990801;28;20195;-65
2022/01/03 04:47:20;;;;;;;15.57;9.47;;;4.20;99.90;;;;;;4984797;28;20200;-65
2022/01/03 04:49:47;;;;;;;18.30;9.60;;;4.20;99.90;;;;;;4991395;28;20213;-65
2022/01/03 04:52:14;;;;;;;15.80;9.00;;;4.30;99.90;;;;;;4991437;28;20204;-64
2022/01/03 04:54:42;;;;;;;16.80;9.73;;;4.30;99.90;;;;;;4992264;28;20215;-64
2022/01/03 04:57:09;;;;;;;14.87;8.83;;;4.40;99.90;;;;;;4995517;28;20211;-65
2022/01/03 04:59:36;;;;;;;15.20;9.37;;;4.40;99.90;;;;;;4994527;28;20236;-65
2022/01/03 05:02:04;;;;;;;16.57;9.53;;;4.40;99.90;;;;;;4994339;28;20221;-65
2022/01/03 05:04:31;;;;;;;18.93;10.20;;;4.40;99.90;;;;;;4995532;28;20223;-66
2022/01/03 05:06:57;;;;;;;14.60;9.23;;;4.50;99.90;;;;;;4995478;28;20547;-65
2022/01/03 05:09:24;;;;;;;13.33;8.70;;;4.50;99.90;;;;;;4995202;28;20199;-68
2022/01/03 05:11:52;;;;;;;14.80;8.73;;;4.60;99.90;;;;;;4994949;28;20206;-66
2022/01/03 05:14:19;;;;;;;15.73;9.90;;;4.60;99.90;;;;;;4995292;28;20604;-64
2022/01/03 05:16:46;;;;;;;15.47;9.57;;;4.60;99.90;;;;;;4994894;28;20203;-64
2022/01/03 05:19:13;;;;;;;17.00;9.63;;;4.60;99.90;;;;;;4995307;28;20311;-64
2022/01/03 05:21:40;;;;;;;15.20;9.67;;;4.60;99.90;;;;;;4995239;28;20574;-65
2022/01/03 05:24:07;;;;;;;14.60;9.50;;;4.70;99.90;;;;;;4995182;28;20207;-65
2022/01/03 05:26:34;;;;;;;14.63;9.00;;;4.70;99.90;;;;;;4995227;28;20679;-65
2022/01/03 05:29:02;;;;;;;16.73;9.90;;;4.70;99.90;;;;;;4995066;28;20203;-65
2022/01/03 05:31:29;;;;;;;15.77;9.77;;;4.80;99.90;;;;;;4988428;28;20675;-65
2022/01/03 05:33:55;;;;;;;17.23;10.20;;;4.80;99.90;;;;;;4990483;28;20207;-64
2022/01/03 05:36:22;;;;;;;16.13;9.43;;;4.80;99.90;;;;;;4994869;28;20199;-66
2022/01/03 05:38:49;;;;;;;17.40;9.73;;;4.80;99.90;;;;;;4994526;28;20231;-65
2022/01/03 05:41:16;;;;;;;15.97;9.73;;;4.80;99.90;;;;;;4994712;28;20212;-67
2022/01/03 05:43:43;;;;;;;15.87;9.77;;;4.80;99.90;;;;;;4994329;28;20204;-69
2022/01/03 05:46:11;;;;;;;16.00;9.87;;;4.90;99.90;;;;;;4995023;28;20234;-66
2022/01/03 05:48:38;;;;;;;18.47;10.27;;;4.90;99.90;;;;;;4994287;28;20218;-66
2022/01/03 05:51:05;;;;;;;22.57;10.70;;;4.90;99.90;;;;;;4994499;28;20214;-66
2022/01/03 05:53:32;;;;;;;16.03;10.07;;;4.90;99.90;;;;;;4994730;28;20203;-65
2022/01/03 05:55:59;;;;;;;19.60;10.17;;;5.00;99.90;;;;;;4994072;28;20298;-67
2022/01/03 05:58:25;;;;;;;15.90;9.97;;;5.00;99.90;;;;;;4994539;28;20234;-66
2022/01/03 06:00:52;;;;;;;17.40;11.00;;;5.00;99.90;;;;;;4994121;28;20227;-66
2022/01/03 06:03:23;;;;;;;17.43;10.60;;;5.00;99.90;;;;;;4994151;28;20207;-64
2022/01/03 06:06:19;;;;;;;17.27;10.27;;;5.00;99.90;;;;;;4993961;28;20282;-64
2022/01/03 06:08:45;;;;;;;18.00;10.43;;;5.00;99.90;;;;;;4994465;28;20242;-66
2022/01/03 06:11:12;;;;;;;16.60;10.67;;;5.10;99.90;;;;;;4994216;28;20203;-66
2022/01/03 06:13:39;;;;;;;18.47;10.27;;;5.10;99.90;;;;;;4993968;28;20208;-65
2022/01/03 06:16:07;;;;;;;14.93;10.00;;;5.10;99.90;;;;;;4994139;28;20212;-66
2022/01/03 06:18:35;;;;;;;15.87;10.27;;;5.20;99.90;;;;;;4994181;28;20765;-66
2022/01/03 06:21:02;;;;;;;16.93;9.47;;;5.20;99.90;;;;;;4994392;28;20207;-66
2022/01/03 06:23:29;;;;;;;14.90;9.47;;;5.20;99.90;;;;;;4994105;28;20300;-65
2022/01/03 06:25:56;;;;;;;15.60;9.10;;;5.30;99.90;;;;;;4994191;28;20571;-66
2022/01/03 06:28:22;;;;;;;15.07;8.57;;;5.30;99.90;;;;;;4993922;28;20211;-66
2022/01/03 06:30:49;;;;;;;14.27;8.50;;;5.30;99.90;;;;;;4994151;28;20684;-66
2022/01/03 06:33:16;;;;;;;15.23;8.53;;;5.40;99.90;;;;;;4993875;28;20211;-66
2022/01/03 06:35:44;;;;;;;14.00;8.60;;;5.40;99.90;;;;;;4993645;28;20218;-66
2022/01/03 06:38:11;;;;;;;12.53;7.70;;;5.50;99.90;;;;;;4993759;28;20652;-65
2022/01/03 06:40:37;;;;;;;14.43;8.57;;;5.50;99.90;;;;;;4993787;28;20684;-66
2022/01/03 06:43:04;;;;;;;13.70;8.00;;;5.60;99.90;;;;;;4993969;28;20660;-66
2022/01/03 06:45:31;;;;;;;13.93;8.00;;;5.60;99.90;;;;;;4993378;28;20203;-64
2022/01/03 06:47:58;;;;;;;11.47;7.23;;;5.60;99.90;;;;;;4993739;28;20211;-66
2022/01/03 06:50:28;;;;;;;15.43;8.70;;;5.70;99.90;;;;;;4993228;28;20200;-66
2022/01/03 06:52:56;;;;;;;12.77;7.83;;;5.70;99.90;;;;;;4993718;28;20207;-65
2022/01/03 06:55:23;;;;;;;11.70;7.17;;;5.80;99.90;;;;;;4993608;28;20657;-67
2022/01/03 06:57:50;;;;;;;12.80;7.50;;;5.80;99.90;;;;;;4992903;28;20382;-67
2022/01/03 07:00:17;;;;;;;12.90;8.00;;;5.90;99.90;;;;;;4992949;28;20738;-66
2022/01/03 07:02:44;;;;;;;14.47;7.80;;;5.90;99.90;;;;;;4993445;28;20218;-65
2022/01/03 07:05:12;;;;;;;12.90;7.60;;;5.90;99.90;;;;;;4993504;28;20687;-66
2022/01/03 07:07:39;;;;;;;12.83;7.10;;;6.00;99.90;;;;;;4992658;28;20301;-67
2022/01/03 07:10:10;;;;;;;11.73;7.50;;;6.00;99.90;;;;;;4999641;28;20592;-65
2022/01/03 07:12:36;;;;;;;13.13;8.50;;;6.10;99.90;;;;;;5012645;28;20195;-67
2022/01/03 07:20:41;;;;;;;12.17;7.13;;;6.20;99.90;;;;;;4977507;28;20283;-66
2022/01/03 07:23:08;;;;;;;12.47;7.73;;;6.20;99.90;;;;;;4992995;28;20221;-66
2022/01/03 07:25:36;;;;;;;12.90;7.57;;;6.20;99.90;;;;;;4992728;28;20209;-67
2022/01/03 07:28:03;;;;;;;15.40;8.30;;;6.20;99.90;;;;;;4992756;28;20672;-66
2022/01/03 07:30:30;;;;;;;12.73;7.97;;;6.30;99.90;;;;;;4992384;28;20195;-66
2022/01/03 07:32:57;;;;;;;14.90;8.33;;;6.30;99.90;;;;;;4993008;28;20210;-65
2022/01/03 07:35:24;;;;;;;15.13;7.93;;;6.30;99.90;;;;;;4992867;28;20210;-66
2022/01/03 07:37:52;;;;;;;11.90;7.67;;;6.30;99.90;;;;;;4992833;28;20652;-68
2022/01/03 07:40:18;;;;;;;12.57;7.63;;;6.30;99.90;;;;;;4992463;28;20337;-66
2022/01/03 07:42:47;;;;;;;12.93;7.90;;;6.30;99.90;;;;;;4992742;28;20513;-66
2022/01/03 07:45:14;;;;;;;11.50;7.57;;;6.30;99.90;;;;;;4992797;28;20230;-66
2022/01/03 07:47:41;;;;;;;13.87;8.17;;;6.30;99.90;;;;;;4992469;28;20211;-64
2022/01/03 07:50:09;;;;;;;12.20;7.60;;;6.40;99.90;;;;;;4992689;28;20200;-67
2022/01/03 07:52:36;;;;;;;12.77;7.70;;;6.40;99.90;;;;;;4992140;28;20218;-66
2022/01/03 07:55:05;;;;;;;11.43;7.53;;;6.40;99.90;;;;;;4991686;28;20215;-66
2022/01/03 07:57:31;;;;;;;17.47;8.33;;;6.40;99.90;;;;;;4991902;28;20453;-65
2022/01/03 08:00:00;;;;;;;14.03;8.27;;;6.40;99.90;;;;;;4991463;28;20241;-65
2022/01/03 08:02:28;;;;;;;16.43;8.80;;;6.50;99.90;;;;;;4990016;28;20203;-64
2022/01/03 08:04:55;;;;;;;15.13;8.90;;;6.50;99.90;;;;;;4991743;28;20215;-66
2022/01/03 08:07:22;;;;;;;15.07;8.40;;;6.50;99.90;;;;;;4991121;28;20226;-66
2022/01/03 08:09:49;;;;;;;14.67;9.13;;;6.50;99.90;;;;;;4991717;28;20203;-66
2022/01/03 08:12:16;;;;;;;12.47;8.90;;;6.60;99.90;;;;;;4991448;28;20207;-66
2022/01/03 08:14:43;;;;;;;12.60;7.83;;;6.60;99.90;;;;;;4991765;28;20207;-67
2022/01/03 08:17:11;;;;;;;13.93;8.43;;;6.60;99.90;;;;;;4991435;28;20206;-68
2022/01/03 08:19:38;;;;;;;12.73;7.73;;;6.60;99.90;;;;;;4991576;28;20239;-65
2022/01/03 08:22:05;;;;;;;16.00;8.23;;;6.70;99.90;;;;;;4991314;28;20218;-66
2022/01/03 08:24:31;;;;;;;12.50;7.33;;;6.70;99.90;;;;;;4991388;28;20204;-66
2022/01/03 08:26:58;;;;;;;13.07;7.63;;;6.80;99.90;;;;;;4990929;28;20211;-65
2022/01/03 08:29:25;;;;;;;13.60;7.13;;;6.80;99.90;;;;;;4992692;28;20191;-65
2022/01/03 08:31:52;;;;;;;13.67;7.63;;;6.80;99.90;;;;;;4995314;28;20231;-67
2022/01/03 08:34:20;;;;;;;13.93;7.67;;;6.90;99.90;;;;;;4994870;28;20203;-66
2022/01/03 08:36:47;;;;;;;13.07;7.47;;;6.90;99.90;;;;;;4995440;28;20699;-65
2022/01/03 08:39:14;;;;;;;10.77;6.87;;;7.00;99.90;;;;;;4994959;28;20755;-64
2022/01/03 08:41:41;;;;;;;12.67;7.23;;;7.10;99.90;;;;;;4995606;28;20200;-67
2022/01/03 08:44:08;;;;;;;13.93;7.50;;;7.20;99.90;;;;;;4995415;28;20200;-65
2022/01/03 08:46:36;;;;;;;13.20;7.40;;;7.20;99.90;;;;;;4994302;28;20195;-66
2022/01/03 08:49:03;;;;;;;12.70;6.97;;;7.30;99.90;;;;;;4994693;28;20238;-66
2022/01/03 08:51:31;;;;;;;13.03;7.60;;;7.30;99.90;;;;;;4995243;28;20222;-66
2022/01/03 08:53:59;;;;;;;12.40;7.33;;;7.30;99.90;;;;;;4993049;28;20207;-65
2022/01/03 08:56:25;;;;;;;11.90;6.83;;;7.30;99.90;;;;;;4994142;28;20196;-67
2022/01/03 08:58:53;;;;;;;10.53;6.70;;;7.40;99.90;;;;;;4993226;28;20314;-67
2022/01/03 09:01:20;;;;;;;11.27;6.63;;;7.40;99.90;;;;;;4994794;28;20200;-68
2022/01/03 09:03:50;;;;;;;11.50;7.37;;;7.50;99.90;;;;;;4995964;28;20218;-67
2022/01/03 09:06:17;;;;;;;13.07;6.93;;;7.50;99.90;;;;;;4995366;28;20235;-70
2022/01/03 09:08:45;;;;;;;11.03;6.27;;;7.50;99.90;;;;;;4995710;28;20217;-67
2022/01/03 09:11:13;;;;;;;10.77;6.20;;;7.60;99.90;;;;;;4995229;28;20207;-68
2022/01/03 09:13:39;;;;;;;12.17;6.60;;;7.60;99.90;;;;;;4994845;28;20399;-66
2022/01/03 09:16:07;;;;;;;10.67;5.93;;;7.60;99.90;;;;;;4995096;28;20211;-67
2022/01/03 09:18:35;;;;;;;11.40;6.57;;;7.70;99.90;;;;;;4995317;28;20243;-67
2022/01/03 09:21:03;;;;;;;12.00;7.00;;;7.70;99.90;;;;;;4995092;28;20223;-67
2022/01/03 09:23:33;;;;;;;10.03;6.87;;;7.70;99.90;;;;;;4995086;28;20584;-68
2022/01/03 09:28:57;;;;;;;11.10;6.53;;;7.70;99.90;;;;;;4993967;28;20205;-66
2022/01/03 09:31:26;;;;;;;11.23;6.50;;;7.80;99.90;;;;;;4995072;28;20228;-68
2022/01/03 09:33:53;;;;;;;12.33;6.43;;;7.80;99.90;;;;;;4995016;28;20208;-68
2022/01/03 09:36:20;;;;;;;12.20;6.57;;;7.80;99.90;;;;;;4994650;28;20211;-67
2022/01/03 09:38:47;;;;;;;14.33;7.03;;;7.80;99.90;;;;;;4995016;28;20216;-68
2022/01/03 09:41:19;;;;;;;12.77;6.80;;;7.90;99.90;;;;;;4993969;28;20227;-67
2022/01/03 09:43:49;;;;;;;14.27;6.60;;;7.90;99.90;;;;;;4994710;28;20200;-69
2022/01/03 09:46:20;;;;;;;11.63;6.23;;;7.90;99.90;;;;;;4994973;28;20278;-69
2022/01/03 09:48:52;;;;;;;11.60;6.60;;;7.90;99.90;;;;;;4994836;28;20200;-67
2022/01/03 09:51:23;;;;;;;9.77;6.00;;;8.00;99.90;;;;;;4994852;28;20242;-68
2022/01/03 09:53:52;;;;;;;11.00;6.40;;;8.00;99.90;;;;;;4994827;28;20218;-68
2022/01/03 09:56:21;;;;;;;10.83;6.57;;;8.00;99.90;;;;;;4994157;28;20199;-68
2022/01/03 09:58:48;;;;;;;10.47;6.33;;;8.10;99.90;;;;;;4994462;28;20263;-68
2022/01/03 10:01:15;;;;;;;11.23;5.93;;;8.10;99.90;;;;;;4994217;28;20695;-68
2022/01/03 10:03:47;;;;;;;10.43;6.10;;;8.20;99.90;;;;;;4994464;28;20207;-68
2022/01/03 10:06:15;;;;;;;11.60;6.13;;;8.20;99.90;;;;;;4994025;28;20227;-69
2022/01/03 10:08:42;;;;;;;12.13;6.30;;;8.30;99.90;;;;;;4994256;28;20211;-69
2022/01/03 10:11:09;;;;;;;9.70;5.50;;;8.30;99.90;;;;;;4994045;28;20204;-68
2022/01/03 10:13:37;;;;;;;9.50;5.90;;;8.30;99.90;;;;;;4994572;28;20207;-68
2022/01/03 10:16:05;;;;;;;10.33;6.00;;;8.40;99.90;;;;;;4993237;28;20279;-67
2022/01/03 10:18:33;;;;;;;12.53;6.50;;;8.50;99.90;;;;;;4994192;28;20227;-67
2022/01/03 10:21:00;;;;;;;12.23;5.70;;;8.50;99.90;;;;;;4993812;28;20234;-68
2022/01/03 10:23:27;;;;;;;11.77;6.53;;;8.50;99.90;;;;;;4993734;28;20230;-69
2022/01/03 10:25:54;;;;;;;11.70;6.13;;;8.50;99.90;;;;;;4994139;28;20563;-69
2022/01/03 10:28:25;;;;;;;9.70;6.07;;;8.60;99.90;;;;;;4993959;28;20672;-69
2022/01/03 10:30:54;;;;;;;11.33;5.80;;;8.60;99.90;;;;;;4994098;28;20206;-68
2022/01/03 10:33:23;;;;;;;12.93;5.67;;;8.60;99.90;;;;;;4993894;28;20211;-69
2022/01/03 10:35:53;;;;;;;10.17;5.77;;;8.70;99.90;;;;;;4993543;28;20207;-67
2022/01/03 10:38:35;;;;;;;8.80;5.63;;;8.70;99.90;;;;;;4993489;28;20215;-68
2022/01/03 10:41:14;;;;;;;16.80;6.90;;;8.70;99.90;;;;;;4993671;28;20730;-68
2022/01/03 10:43:41;;;;;;;11.37;6.50;;;8.70;99.90;;;;;;4993649;28;20219;-69
2022/01/03 10:46:23;;;;;;;10.47;5.90;;;8.70;99.90;;;;;;4992636;28;20203;-69
2022/01/03 10:48:50;;;;;;;11.17;6.70;;;8.70;99.90;;;;;;4993579;28;20223;-66
2022/01/03 10:51:25;;;;;;;12.07;6.47;;;8.70;99.90;;;;;;4988641;28;20206;-68
2022/01/03 10:53:54;;;;;;;15.23;6.37;;;8.70;99.90;;;;;;4992525;28;20230;-68
2022/01/03 10:56:39;;;;;;;11.10;5.50;;;8.80;99.90;;;;;;4993297;28;20303;-68
2022/01/03 10:59:22;;;;;;;10.23;5.70;;;8.70;99.90;;;;;;4992663;28;20250;-71
2022/01/03 11:01:53;;;;;;;8.97;5.33;;;8.70;99.90;;;;;;4991098;28;20199;-70
2022/01/03 11:04:31;;;;;;;8.23;5.13;;;8.70;99.90;;;;;;4993121;28;20199;-68
2022/01/03 11:13:11;;;;;;;9.73;5.50;;;8.70;99.90;;;;;;4993225;28;20242;-69
2022/01/03 11:15:39;;;;;;;11.23;5.23;;;8.70;99.90;;;;;;4993071;28;20200;-69
2022/01/03 11:18:14;;;;;;;10.07;5.33;;;8.70;99.90;;;;;;4991670;28;20429;-70
2022/01/03 11:20:41;;;;;;;8.33;4.77;;;8.70;99.90;;;;;;4991787;28;20210;-69
2022/01/03 11:23:09;;;;;;;8.00;4.90;;;8.70;99.90;;;;;;4989001;28;20200;-69
2022/01/03 11:25:37;;;;;;;9.13;5.10;;;8.70;99.90;;;;;;4991980;28;20200;-69
2022/01/03 11:28:05;;;;;;;10.37;5.47;;;8.70;99.90;;;;;;4992168;28;20568;-68
2022/01/03 11:30:33;;;;;;;8.70;5.10;;;8.60;99.90;;;;;;4991440;28;20572;-69
2022/01/03 11:33:01;;;;;;;9.40;5.23;;;8.70;99.90;;;;;;4989220;28;20572;-68
2022/01/03 11:35:29;;;;;;;11.77;5.23;;;8.60;99.90;;;;;;4994526;28;20796;-67
2022/01/03 11:38:00;;;;;;;9.20;4.93;;;8.60;99.90;;;;;;4991322;28;20200;-68
2022/01/03 11:40:28;;;;;;;9.67;4.77;;;8.60;99.90;;;;;;4991323;28;20669;-68
2022/01/03 11:42:55;;;;;;;6.97;4.73;;;8.60;99.90;;;;;;4988531;28;20204;-69
2022/01/03 11:45:23;;;;;;;8.80;4.80;;;8.60;99.90;;;;;;4992308;28;20204;-69
2022/01/03 11:47:50;;;;;;;8.93;4.90;;;8.60;99.90;;;;;;4991470;28;20203;-69
2022/01/03 11:50:17;;;;;;;8.03;5.03;;;8.60;99.90;;;;;;4991518;28;20527;-67
2022/01/03 11:52:47;;;;;;;8.00;5.00;;;8.60;99.90;;;;;;4990491;28;20200;-69
2022/01/03 11:55:15;;;;;;;8.33;5.30;;;8.60;99.90;;;;;;4990265;28;20265;-68
2022/01/03 11:58:11;;;;;;;7.03;4.57;;;8.60;99.90;;;;;;4992552;28;20562;-70
2022/01/03 12:03:50;;;;;;;7.37;4.77;;;8.60;99.90;;;;;;4991089;28;20252;-69
2022/01/03 12:06:32;;;;;;;9.63;4.80;;;8.60;99.90;;;;;;4990719;28;20226;-71
2022/01/03 12:09:05;;;;;;;9.80;4.60;;;8.60;99.90;;;;;;4990350;28;20249;-68
2022/01/03 12:11:32;;;;;;;10.37;5.10;;;8.60;99.90;;;;;;4989399;28;20234;-68
2022/01/03 12:14:06;;;;;;;8.53;5.10;;;8.60;99.90;;;;;;4990397;28;20196;-68
2022/01/03 12:16:45;;;;;;;7.90;5.17;;;8.60;99.90;;;;;;4990346;28;20195;-68
2022/01/03 12:19:14;;;;;;;7.60;4.77;;;8.60;99.90;;;;;;4990509;28;20270;-68
2022/01/03 12:22:02;;;;;;;9.60;5.10;;;8.60;99.90;;;;;;4990500;28;20223;-69
2022/01/03 12:24:50;;;;;;;9.03;4.70;;;8.60;99.90;;;;;;4992375;28;20195;-68
2022/01/03 12:27:32;;;;;;;9.70;4.87;;;8.60;99.90;;;;;;4991921;28;20210;-68
2022/01/03 12:30:29;;;;;;;8.13;4.43;;;8.60;99.90;;;;;;4991927;28;20645;-68
2022/01/03 12:33:22;;;;;;;7.33;4.63;;;8.60;99.90;;;;;;4991318;28;20212;-69
2022/01/03 12:35:53;;;;;;;7.77;5.00;;;8.60;99.90;;;;;;4991966;28;20551;-69
2022/01/03 12:38:28;;;;;;;7.90;4.93;;;8.60;99.90;;;;;;4992751;28;20693;-70
2022/01/03 12:40:59;;;;;;;7.40;4.80;;;8.50;99.90;;;;;;4991393;28;20261;-66
2022/01/03 12:43:50;;;;;;;7.30;4.60;;;8.50;99.90;;;;;;4991483;28;20209;-68
2022/01/03 12:46:24;;;;;;;10.13;4.70;;;8.50;99.90;;;;;;4991763;28;20199;-68
2022/01/03 12:48:53;;;;;;;11.60;5.30;;;8.50;99.90;;;;;;4972589;28;20218;-68
2022/01/03 12:51:20;;;;;;;7.83;4.30;;;8.50;99.90;;;;;;4972757;28;20205;-67
2022/01/03 12:53:53;;;;;;;6.37;4.27;;;8.50;99.90;;;;;;4973252;28;20298;-67
2022/01/03 12:56:29;;;;;;;8.23;4.90;;;8.50;99.90;;;;;;4978108;28;20248;-67
2022/01/03 12:58:58;;;;;;;9.67;5.17;;;8.50;99.90;;;;;;4991410;28;20238;-70
2022/01/03 13:01:30;;;;;;;6.50;4.80;;;8.50;99.90;;;;;;4991830;28;20223;-69
2022/01/03 13:04:04;;;;;;;7.77;4.30;;;8.50;99.90;;;;;;4991848;28;20597;-69
2022/01/03 13:06:32;;;;;;;7.90;4.73;;;8.50;99.90;;;;;;4991629;28;20196;-68
2022/01/03 13:09:08;;;;;;;6.97;4.60;;;8.50;99.90;;;;;;4991439;28;20559;-68
2022/01/03 13:11:39;;;;;;;7.77;4.70;;;8.50;99.90;;;;;;4993553;28;20246;-69
2022/01/03 13:14:08;;;;;;;6.97;4.50;;;8.50;99.90;;;;;;4989374;28;20196;-69
2022/01/03 13:16:37;;;;;;;6.70;4.30;;;8.50;99.90;;;;;;5013299;28;20206;-70
2022/01/03 13:19:06;;;;;;;7.70;4.20;;;8.50;99.90;;;;;;5012370;28;20218;-69